createdAt,value
2019-05-18T00:02:10.189Z,4.83
2019-05-18T00:04:54.944Z,4.03
2019-05-18T00:07:39.780Z,4.12
2019-05-18T00:10:24.608Z,4.12
2019-05-18T00:13:09.349Z,3.30
2019-05-18T00:15:54.190Z,5.15
2019-05-18T00:18:39.217Z,5.65
2019-05-18T00:21:23.945Z,4.45
2019-05-18T00:24:08.866Z,4.15
2019-05-18T00:26:53.604Z,4.58
2019-05-18T00:29:39.025Z,5.15
2019-05-18T00:32:23.746Z,4.65
2019-05-18T00:35:08.776Z,5.45
2019-05-18T00:37:53.949Z,4.70
2019-05-18T00:40:38.739Z,4.97
2019-05-18T00:43:23.741Z,6.55
2019-05-18T00:46:08.546Z,5.97
2019-05-18T00:48:53.501Z,7.55
2019-05-18T00:51:38.273Z,6.70
2019-05-18T00:54:23.115Z,6.58
2019-05-18T00:57:07.867Z,8.08
2019-05-18T00:59:54.074Z,7.65
2019-05-18T01:02:38.932Z,7.60
2019-05-18T01:05:23.826Z,9.03
2019-05-18T01:08:09.137Z,6.45
2019-05-18T01:10:53.894Z,7.53
2019-05-18T01:13:38.734Z,7.50
2019-05-18T01:16:23.440Z,9.60
2019-05-18T01:19:08.531Z,7.72
2019-05-18T01:21:53.125Z,8.63
2019-05-18T01:24:37.957Z,10.80
2019-05-18T01:27:22.812Z,6.65
2019-05-18T01:30:08.651Z,8.28
2019-05-18T01:32:53.921Z,6.58
2019-05-18T01:35:38.666Z,7.00
2019-05-18T01:38:23.485Z,6.58
2019-05-18T01:41:08.200Z,8.23
2019-05-18T01:43:53.093Z,6.15
2019-05-18T01:46:37.841Z,7.70
2019-05-18T01:49:22.619Z,4.83
2019-05-18T01:52:07.674Z,8.45
2019-05-18T01:54:52.436Z,6.05
2019-05-18T01:57:37.332Z,7.00
2019-05-18T02:00:22.256Z,5.67
2019-05-18T02:03:07.469Z,7.10
2019-05-18T02:05:52.186Z,7.83
2019-05-18T02:08:37.908Z,8.93
2019-05-18T02:11:22.783Z,5.95
2019-05-18T02:14:08.277Z,9.65
2019-05-18T02:16:53.457Z,8.65
2019-05-18T02:19:38.305Z,5.50
2019-05-18T02:22:23.173Z,7.15
2019-05-18T02:25:08.103Z,6.37
2019-05-18T02:27:53.153Z,5.58
2019-05-18T02:30:38.159Z,5.30
2019-05-18T02:33:23.277Z,5.87
2019-05-18T02:36:08.141Z,9.98
2019-05-18T02:38:53.005Z,6.85
2019-05-18T02:41:38.039Z,8.33
2019-05-18T02:44:22.932Z,5.97
2019-05-18T02:47:07.710Z,6.80
2019-05-18T02:49:52.459Z,6.03
2019-05-18T02:52:37.436Z,9.13
2019-05-18T02:55:22.243Z,5.65
2019-05-18T02:58:06.975Z,5.30
2019-05-18T03:00:51.977Z,7.30
2019-05-18T03:03:36.740Z,6.67
2019-05-18T03:06:21.826Z,7.62
2019-05-18T03:09:07.070Z,8.80
2019-05-18T03:11:52.317Z,11.22
2019-05-18T03:14:37.099Z,6.80
2019-05-18T03:17:23.028Z,6.50
2019-05-18T03:20:08.708Z,5.75
2019-05-18T03:22:53.681Z,5.22
2019-05-18T03:25:38.599Z,7.65
2019-05-18T03:28:23.325Z,6.87
2019-05-18T03:31:08.149Z,6.22
2019-05-18T03:33:52.888Z,5.72
2019-05-18T03:36:37.676Z,6.62
2019-05-18T03:39:22.553Z,5.87
2019-05-18T03:42:07.167Z,5.65
2019-05-18T03:44:52.022Z,7.95
2019-05-18T03:47:36.598Z,6.70
2019-05-18T03:50:21.501Z,4.85
2019-05-18T03:53:06.349Z,5.80
2019-05-18T03:55:51.377Z,6.80
2019-05-18T03:58:36.047Z,7.97
2019-05-18T04:01:20.916Z,8.58
2019-05-18T04:04:05.660Z,5.03
2019-05-18T04:06:50.372Z,10.55
2019-05-18T04:09:35.025Z,7.08
2019-05-18T04:12:19.729Z,5.28
2019-05-18T04:15:05.693Z,6.53
2019-05-18T04:17:50.421Z,8.98
2019-05-18T04:20:35.513Z,8.93
2019-05-18T04:23:20.299Z,5.97
2019-05-18T04:26:05.035Z,6.70
2019-05-18T04:28:49.796Z,5.35
2019-05-18T04:31:34.595Z,8.93
2019-05-18T04:34:19.311Z,5.20
2019-05-18T04:37:04.181Z,6.33
2019-05-18T04:39:48.916Z,6.17
2019-05-18T04:42:33.852Z,7.33
2019-05-18T04:45:19.411Z,7.55
2019-05-18T04:48:04.372Z,9.10
2019-05-18T04:50:49.383Z,6.22
2019-05-18T04:53:34.007Z,7.03
2019-05-18T04:56:18.800Z,7.30
2019-05-18T04:59:03.648Z,5.85
2019-05-18T05:01:48.412Z,6.30
2019-05-18T05:04:33.302Z,7.90
2019-05-18T05:07:18.126Z,4.70
2019-05-18T05:10:05.157Z,6.95
2019-05-18T05:12:49.961Z,6.15
2019-05-18T05:15:34.744Z,6.40
2019-05-18T05:18:19.525Z,5.95
2019-05-18T05:21:04.458Z,7.33
2019-05-18T05:23:49.204Z,8.85
2019-05-18T05:26:34.118Z,6.40
2019-05-18T05:29:19.030Z,9.48
2019-05-18T05:32:03.877Z,6.78
2019-05-18T05:34:48.710Z,8.15
2019-05-18T05:37:33.476Z,7.28
2019-05-18T05:40:18.287Z,6.03
2019-05-18T05:43:03.029Z,8.83
2019-05-18T05:45:47.759Z,5.10
2019-05-18T05:48:32.583Z,8.13
2019-05-18T05:51:17.293Z,6.72
2019-05-18T05:54:02.445Z,12.23
2019-05-18T05:56:47.561Z,7.60
2019-05-18T05:59:33.610Z,11.18
2019-05-18T06:02:18.426Z,6.55
2019-05-18T06:05:06.148Z,9.85
2019-05-18T06:07:51.041Z,8.70
2019-05-18T06:10:35.844Z,9.75
2019-05-18T06:13:20.802Z,5.92
2019-05-18T06:16:05.608Z,7.05
2019-05-18T06:18:50.486Z,5.97
2019-05-18T06:21:35.103Z,6.95
2019-05-18T06:24:19.930Z,5.47
2019-05-18T06:27:04.725Z,5.80
2019-05-18T06:29:49.550Z,9.18
2019-05-18T06:32:34.390Z,7.17
2019-05-18T06:35:19.375Z,10.53
2019-05-18T06:38:04.303Z,7.25
2019-05-18T06:40:49.080Z,6.50
2019-05-18T06:43:33.914Z,6.47
2019-05-18T06:46:18.681Z,6.50
2019-05-18T06:49:03.551Z,9.13
2019-05-18T06:51:48.661Z,7.97
2019-05-18T06:54:33.929Z,7.62
2019-05-18T06:57:19.933Z,8.13
2019-05-18T07:00:08.835Z,6.92
2019-05-18T07:02:54.238Z,8.40
2019-05-18T07:05:39.593Z,10.80
2019-05-18T07:08:24.685Z,11.28
2019-05-18T07:11:09.777Z,9.05
2019-05-18T07:13:54.533Z,7.80
2019-05-18T07:16:39.301Z,7.95
2019-05-18T07:19:24.014Z,7.55
2019-05-18T07:22:08.749Z,10.53
2019-05-18T07:24:53.481Z,10.18
2019-05-18T07:27:38.224Z,8.25
2019-05-18T07:30:23.274Z,6.25
2019-05-18T07:33:08.506Z,6.60
2019-05-18T07:35:53.809Z,8.83
2019-05-18T07:38:38.793Z,8.93
2019-05-18T07:41:23.924Z,7.15
2019-05-18T07:44:08.623Z,9.33
2019-05-18T07:46:53.294Z,7.75
2019-05-18T07:49:38.094Z,7.75
2019-05-18T07:52:23.810Z,10.08
2019-05-18T07:55:09.311Z,7.53
2019-05-18T07:57:54.080Z,7.37
2019-05-18T08:00:38.876Z,9.10
2019-05-18T08:03:23.614Z,7.67
2019-05-18T08:06:08.427Z,10.00
2019-05-18T08:08:53.059Z,11.75
2019-05-18T08:11:38.357Z,9.33
2019-05-18T08:14:23.234Z,8.18
2019-05-18T08:17:08.110Z,8.45
2019-05-18T08:19:53.093Z,9.45
2019-05-18T08:22:37.909Z,5.90
2019-05-18T08:25:22.883Z,7.42
2019-05-18T08:28:07.732Z,7.12
2019-05-18T08:30:52.562Z,9.75
2019-05-18T08:33:37.454Z,9.33
2019-05-18T08:36:22.670Z,9.33
2019-05-18T08:39:07.539Z,8.98
2019-05-18T08:41:52.244Z,9.58
2019-05-18T08:44:37.206Z,7.92
2019-05-18T08:47:22.128Z,8.95
2019-05-18T08:50:08.491Z,9.33
2019-05-18T08:52:53.416Z,8.50
2019-05-18T08:55:38.154Z,10.08
2019-05-18T08:58:22.903Z,8.45
2019-05-18T09:01:07.698Z,8.28
2019-05-18T09:03:52.557Z,10.43
2019-05-18T09:06:37.396Z,9.70
2019-05-18T09:09:22.325Z,8.93
2019-05-18T09:12:07.250Z,8.95
2019-05-18T09:14:52.192Z,10.65
2019-05-18T09:17:37.102Z,8.03
2019-05-18T09:20:22.866Z,9.28
2019-05-18T09:23:07.598Z,9.03
2019-05-18T09:25:52.397Z,7.90
2019-05-18T09:28:37.314Z,9.98
2019-05-18T09:31:22.277Z,9.00
2019-05-18T09:34:07.196Z,10.65
2019-05-18T09:36:52.037Z,9.53
2019-05-18T09:39:36.970Z,8.90
2019-05-18T09:42:21.767Z,9.05
2019-05-18T09:45:08.164Z,9.13
2019-05-18T09:47:53.700Z,8.73
2019-05-18T09:50:38.522Z,7.70
2019-05-18T09:53:23.406Z,7.97
2019-05-18T09:56:08.236Z,8.38
2019-05-18T09:58:53.089Z,11.25
2019-05-18T10:01:38.038Z,9.15
2019-05-18T10:04:22.877Z,6.87
2019-05-18T10:07:07.605Z,8.28
2019-05-18T10:09:52.739Z,8.05
2019-05-18T10:12:37.937Z,10.18
2019-05-18T10:15:23.074Z,9.05
2019-05-18T10:18:08.013Z,8.35
2019-05-18T10:20:52.913Z,9.38
2019-05-18T10:23:40.386Z,7.72
2019-05-18T10:26:24.465Z,9.30
2019-05-18T10:29:09.416Z,8.00
2019-05-18T10:31:54.354Z,6.87
2019-05-18T10:34:39.110Z,7.95
2019-05-18T10:37:24.017Z,8.03
2019-05-18T10:40:09.410Z,6.72
2019-05-18T10:42:54.282Z,7.75
2019-05-18T10:45:39.184Z,10.60
2019-05-18T10:48:24.355Z,6.97
2019-05-18T10:51:09.141Z,6.42
2019-05-18T10:53:54.039Z,8.60
2019-05-18T10:56:39.064Z,8.33
2019-05-18T10:59:25.196Z,7.60
2019-05-18T11:02:10.086Z,6.90
2019-05-18T11:04:55.382Z,8.38
2019-05-18T11:07:40.200Z,6.60
2019-05-18T11:10:25.346Z,10.13
2019-05-18T11:13:10.482Z,8.03
2019-05-18T11:16:15.103Z,8.73
2019-05-18T11:19:00.034Z,6.00
2019-05-18T11:21:44.887Z,5.60
2019-05-18T11:24:30.245Z,7.70
2019-05-18T11:27:14.998Z,7.25
2019-05-18T11:30:00.000Z,5.97
2019-05-18T11:32:44.934Z,7.70
2019-05-18T11:35:29.702Z,5.45
2019-05-18T11:38:14.506Z,5.62
2019-05-18T11:41:00.658Z,5.03
2019-05-18T11:43:45.596Z,4.97
2019-05-18T11:46:30.485Z,7.72
2019-05-18T11:49:15.522Z,4.75
2019-05-18T11:52:00.679Z,5.67
2019-05-18T11:54:45.487Z,3.27
2019-05-18T11:57:31.236Z,12.10
2019-05-18T12:00:16.803Z,4.47
2019-05-18T12:03:01.784Z,6.97
2019-05-18T12:05:46.477Z,3.67
2019-05-18T12:08:31.286Z,6.08
2019-05-18T12:11:16.069Z,3.50
2019-05-18T12:14:00.990Z,4.28
2019-05-18T12:16:45.567Z,4.53
2019-05-18T12:19:30.346Z,4.12
2019-05-18T12:22:15.040Z,7.25
2019-05-18T12:24:59.837Z,5.20
2019-05-18T12:27:44.794Z,2.72
2019-05-18T12:30:31.185Z,3.95
2019-05-18T12:33:16.500Z,4.00
2019-05-18T12:36:01.301Z,4.25
2019-05-18T12:38:46.279Z,4.58
2019-05-18T12:41:30.941Z,5.97
2019-05-18T12:44:15.939Z,3.60
2019-05-18T12:47:00.675Z,3.50
2019-05-18T12:49:45.538Z,2.60
2019-05-18T12:52:30.472Z,2.83
2019-05-18T12:55:18.322Z,2.22
2019-05-18T12:58:03.411Z,3.12
2019-05-18T13:00:48.471Z,3.90
2019-05-18T13:03:33.225Z,5.40
2019-05-18T13:06:18.471Z,6.60
2019-05-18T13:09:05.331Z,2.22
2019-05-18T13:11:50.278Z,4.17
2019-05-18T13:14:35.244Z,3.42
2019-05-18T13:17:21.357Z,2.35
2019-05-18T13:20:07.950Z,3.87
2019-05-18T13:22:52.763Z,3.17
2019-05-18T13:25:37.712Z,5.58
2019-05-18T13:28:22.545Z,2.83
2019-05-18T13:31:07.401Z,2.22
2019-05-18T13:33:52.536Z,2.08
2019-05-18T13:36:37.191Z,3.62
2019-05-18T13:39:22.022Z,2.70
2019-05-18T13:42:06.693Z,2.50
2019-05-18T13:44:51.569Z,4.55
2019-05-18T13:47:36.613Z,2.12
2019-05-18T13:50:22.169Z,4.75
2019-05-18T13:53:07.129Z,2.60
2019-05-18T13:55:51.917Z,3.08
2019-05-18T13:58:36.718Z,2.62
2019-05-18T14:01:21.494Z,3.83
2019-05-18T14:04:12.642Z,3.60
2019-05-18T14:06:57.793Z,4.35
2019-05-18T14:09:42.630Z,3.72
2019-05-18T14:12:27.541Z,3.98
2019-05-18T14:15:12.909Z,2.30
2019-05-18T14:17:57.970Z,2.87
2019-05-18T14:20:42.754Z,2.15
2019-05-18T14:23:27.489Z,1.65
2019-05-18T14:26:12.438Z,2.30
2019-05-18T14:28:57.232Z,3.55
2019-05-18T14:31:42.006Z,3.00
2019-05-18T14:34:26.816Z,3.22
2019-05-18T14:37:11.717Z,4.85
2019-05-18T14:39:56.490Z,3.72
2019-05-18T14:42:41.574Z,6.30
2019-05-18T14:45:26.946Z,3.58
2019-05-18T14:48:11.673Z,3.15
2019-05-18T14:50:56.527Z,2.60
2019-05-18T14:53:41.860Z,2.85
2019-05-18T14:56:26.981Z,3.75
2019-05-18T14:59:12.014Z,3.62
2019-05-18T15:01:57.021Z,2.47
2019-05-18T15:04:41.761Z,6.03
2019-05-18T15:07:26.890Z,4.53
2019-05-18T15:10:12.326Z,1.62
2019-05-18T15:12:57.085Z,2.25
2019-05-18T15:15:42.253Z,4.05
2019-05-18T15:18:27.205Z,2.33
2019-05-18T15:21:12.640Z,3.58
2019-05-18T15:23:57.814Z,4.65
2019-05-18T15:26:42.717Z,2.72
2019-05-18T15:29:27.520Z,2.92
2019-05-18T15:32:12.430Z,2.17
2019-05-18T15:34:57.623Z,3.25
2019-05-18T15:37:43.738Z,2.17
2019-05-18T15:40:29.302Z,5.37
2019-05-18T15:43:14.214Z,2.60
2019-05-18T15:45:59.026Z,2.20
2019-05-18T15:48:43.982Z,4.10
2019-05-18T15:51:29.266Z,3.62
2019-05-18T15:54:14.444Z,2.83
2019-05-18T15:56:59.307Z,5.35
2019-05-18T15:59:44.706Z,6.20
2019-05-18T16:02:29.809Z,5.65
2019-05-18T16:05:14.966Z,19.92
2019-05-18T16:08:00.162Z,20.88
2019-05-18T16:10:45.072Z,28.87
2019-05-18T16:13:29.773Z,7.83
2019-05-18T16:16:14.815Z,1.25
2019-05-18T16:19:00.030Z,1.82
2019-05-18T16:21:45.735Z,2.40
2019-05-18T16:24:30.871Z,1.35
2019-05-18T16:27:15.747Z,1.22
2019-05-18T16:30:00.625Z,1.40
2019-05-18T16:32:45.720Z,1.52
2019-05-18T16:35:30.823Z,2.40
2019-05-18T16:38:16.174Z,1.75
2019-05-18T16:41:00.898Z,1.70
2019-05-18T16:43:45.842Z,1.72
2019-05-18T16:46:30.653Z,1.95
2019-05-18T16:49:15.388Z,2.12
2019-05-18T16:52:00.064Z,3.12
2019-05-18T16:54:44.843Z,2.92
2019-05-18T16:57:29.658Z,2.27
2019-05-18T17:00:16.749Z,2.15
2019-05-18T17:03:02.022Z,5.28
2019-05-18T17:05:46.763Z,2.83
2019-05-18T17:08:31.633Z,3.87
2019-05-18T17:11:16.485Z,3.55
2019-05-18T17:14:01.681Z,2.42
2019-05-18T17:16:46.522Z,3.33
2019-05-18T17:19:32.270Z,2.70
2019-05-18T17:22:17.613Z,2.98
2019-05-18T17:25:04.179Z,2.45
2019-05-18T17:27:49.061Z,3.08
2019-05-18T17:30:33.835Z,4.55
2019-05-18T17:33:18.502Z,3.87
2019-05-18T17:36:03.777Z,4.87
2019-05-18T17:38:48.971Z,4.55
2019-05-18T17:41:34.073Z,3.75
2019-05-18T17:44:18.862Z,2.47
2019-05-18T17:47:04.573Z,2.75
2019-05-18T17:49:49.802Z,3.08
2019-05-18T17:52:34.594Z,3.65
2019-05-18T17:55:19.443Z,3.72
2019-05-18T17:58:04.533Z,3.17
2019-05-18T18:00:49.209Z,4.55
2019-05-18T18:03:34.067Z,7.62
2019-05-18T18:06:19.103Z,3.70
2019-05-18T18:09:06.332Z,2.85
2019-05-18T18:11:51.174Z,4.20
2019-05-18T18:14:36.099Z,4.35
2019-05-18T18:17:21.246Z,3.17
2019-05-18T18:20:07.070Z,3.77
2019-05-18T18:22:51.884Z,3.70
2019-05-18T18:25:36.807Z,3.77
2019-05-18T18:28:21.523Z,5.87
2019-05-18T18:31:06.464Z,2.85
2019-05-18T18:33:51.838Z,3.17
2019-05-18T18:36:36.460Z,3.50
2019-05-18T18:39:21.296Z,2.30
2019-05-18T18:42:07.376Z,2.95
2019-05-18T18:44:52.639Z,2.30
2019-05-18T18:47:37.871Z,3.70
2019-05-18T18:50:22.598Z,4.35
2019-05-18T18:53:07.507Z,3.67
2019-05-18T18:55:52.222Z,2.42
2019-05-18T18:58:36.862Z,3.27
2019-05-18T19:01:21.774Z,3.35
2019-05-18T19:04:06.577Z,18.25
2019-05-18T19:06:51.464Z,5.65
2019-05-18T19:09:37.529Z,4.40
2019-05-18T19:12:23.262Z,4.25
2019-05-18T19:15:09.398Z,4.15
2019-05-18T19:17:54.478Z,5.72
2019-05-18T19:20:39.334Z,5.97
2019-05-18T19:23:24.420Z,6.55
2019-05-18T19:26:09.061Z,4.42
2019-05-18T19:28:54.083Z,6.72
2019-05-18T19:31:38.900Z,3.90
2019-05-18T19:34:23.654Z,8.33
2019-05-18T19:37:08.365Z,7.50
2019-05-18T19:39:53.160Z,5.00
2019-05-18T19:42:37.831Z,5.67
2019-05-18T19:45:22.530Z,5.33
2019-05-18T19:48:09.119Z,5.10
2019-05-18T19:50:54.127Z,5.92
2019-05-18T19:53:38.946Z,4.40
2019-05-18T19:56:23.632Z,7.55
2019-05-18T19:59:08.435Z,3.95
2019-05-18T20:01:53.207Z,3.72
2019-05-18T20:04:38.051Z,6.53
2019-05-18T20:07:23.509Z,6.12
2019-05-18T20:10:08.943Z,4.33
2019-05-18T20:12:54.269Z,3.95
2019-05-18T20:15:39.016Z,4.83
2019-05-18T20:18:23.758Z,5.22
2019-05-18T20:21:08.531Z,5.70
2019-05-18T20:23:53.265Z,5.30
2019-05-18T20:26:38.065Z,3.60
2019-05-18T20:29:22.993Z,4.10
2019-05-18T20:32:07.803Z,4.17
2019-05-18T20:34:52.761Z,3.55
2019-05-18T20:37:38.230Z,4.42
2019-05-18T20:40:23.531Z,4.10
2019-05-18T20:43:08.767Z,4.62
2019-05-18T20:45:53.555Z,4.67
2019-05-18T20:48:39.854Z,4.20
2019-05-18T20:51:24.933Z,3.62
2019-05-18T20:54:09.702Z,4.12
2019-05-18T20:56:54.769Z,3.75
2019-05-18T20:59:40.121Z,3.30
2019-05-18T21:02:25.003Z,3.67
2019-05-18T21:05:11.751Z,4.17
2019-05-18T21:07:57.035Z,4.65
2019-05-18T21:10:43.068Z,4.75
2019-05-18T21:13:28.148Z,7.28
2019-05-18T21:16:14.301Z,5.08
2019-05-18T21:18:58.878Z,5.58
2019-05-18T21:21:43.849Z,4.00
2019-05-18T21:24:28.727Z,7.40
2019-05-18T21:27:13.508Z,3.62
2019-05-18T21:29:58.543Z,3.65
2019-05-18T21:32:43.347Z,3.27
2019-05-18T21:35:28.161Z,4.28
2019-05-18T21:38:12.954Z,4.45
2019-05-18T21:40:57.787Z,4.00
2019-05-18T21:43:43.697Z,4.65
2019-05-18T21:46:28.382Z,4.70
2019-05-18T21:49:13.349Z,5.78
2019-05-18T21:51:58.094Z,4.33
2019-05-18T21:54:43.120Z,5.45
2019-05-18T21:57:27.810Z,6.70
2019-05-18T22:00:13.074Z,7.00
2019-05-18T22:02:59.855Z,5.33
2019-05-18T22:05:44.677Z,7.83
2019-05-18T22:08:29.478Z,3.60
2019-05-18T22:11:14.438Z,4.30
2019-05-18T22:13:59.330Z,5.28
2019-05-18T22:16:44.118Z,6.53
2019-05-18T22:19:29.000Z,5.50
2019-05-18T22:22:13.762Z,4.20
2019-05-18T22:24:58.616Z,6.62
2019-05-18T22:27:43.344Z,5.12
2019-05-18T22:30:28.216Z,6.95
2019-05-18T22:33:13.411Z,6.72
2019-05-18T22:35:58.317Z,7.80
2019-05-18T22:38:43.387Z,8.15
2019-05-18T22:41:28.311Z,8.63
2019-05-18T22:44:13.627Z,8.20
2019-05-18T22:46:58.447Z,8.03
2019-05-18T22:49:43.139Z,7.78
2019-05-18T22:52:28.010Z,8.55
2019-05-18T22:55:13.330Z,8.33
2019-05-18T22:57:58.583Z,8.25
2019-05-18T23:00:43.505Z,8.65
2019-05-18T23:03:28.349Z,9.88
2019-05-18T23:06:13.010Z,7.42
2019-05-18T23:08:57.780Z,11.50
2019-05-18T23:11:42.561Z,10.48
2019-05-18T23:14:27.386Z,9.13
2019-05-18T23:17:12.075Z,9.58
2019-05-18T23:19:56.892Z,8.88
2019-05-18T23:22:41.762Z,8.65
2019-05-18T23:25:26.528Z,7.85
2019-05-18T23:28:11.689Z,9.98
2019-05-18T23:30:56.477Z,7.55
2019-05-18T23:33:41.507Z,8.20
2019-05-18T23:36:27.615Z,7.12
2019-05-18T23:39:12.391Z,6.67
2019-05-18T23:41:57.230Z,10.63
2019-05-18T23:44:42.126Z,7.75
2019-05-18T23:47:26.993Z,7.65
2019-05-18T23:50:11.841Z,7.55
2019-05-18T23:52:57.713Z,9.63
2019-05-18T23:55:42.455Z,8.85
2019-05-18T23:58:27.342Z,9.03
